Joseph City, Arizona
Current Conditions -  °F | °C
As of 1:56 PM on Saturday 25 Oct 2014 (Local Time) from KINW Reporting Station
Broken Clouds Broken Clouds  
Wind Chill: 28°   Ceiling: 8500
Heat Index: 28°   Visibility: 10mi
Dew Point:   Wind: 14mph
Humidity: 22%   Direction: 200°SSW
Pressure: 30.19"   Gusts: 18mph
Location:  34.96°N, 110.34°W
Report Text: KINW 252056Z AUTO 20012G16KT 10SM BKN085 28/04 A3019 RMK AO2 SLP165 T02830044 56023
Loading
Personal Weather Stations






























Interactive Weather Map
Tropical Storm Tracking
New forecast layout! Learn more

10-Day Weather Forecast

Advertisements
Track Severe Weather on mobile